createdAt,value
2022-12-18T00:01:36.258Z,21.13
2022-12-18T00:04:12.649Z,20.57
2022-12-18T00:06:40.191Z,20.10
2022-12-18T00:09:08.619Z,22.03
2022-12-18T00:11:36.031Z,20.37
2022-12-18T00:14:03.426Z,20.97
2022-12-18T00:16:34.088Z,20.40
2022-12-18T00:19:02.243Z,19.97
2022-12-18T00:21:31.234Z,19.93
2022-12-18T00:24:00.596Z,21.53
2022-12-18T00:26:31.383Z,21.90
2022-12-18T00:29:14.931Z,22.43
2022-12-18T00:31:44.464Z,21.13
2022-12-18T00:34:13.955Z,20.90
2022-12-18T00:36:42.172Z,21.73
2022-12-18T00:39:11.591Z,23.97
2022-12-18T00:41:57.902Z,20.83
2022-12-18T00:44:25.330Z,20.33
2022-12-18T00:46:52.741Z,22.43
2022-12-18T00:49:21.355Z,21.80
2022-12-18T00:51:49.586Z,20.53
2022-12-18T00:54:17.935Z,22.63
2022-12-18T00:56:49.022Z,21.83
2022-12-18T00:59:18.817Z,17.83
2022-12-18T01:01:47.255Z,21.00
2022-12-18T01:04:15.397Z,18.53
2022-12-18T01:06:42.822Z,20.13
2022-12-18T01:09:10.226Z,19.33
2022-12-18T01:11:37.780Z,21.53
2022-12-18T01:14:05.811Z,20.67
2022-12-18T01:16:33.462Z,20.93
2022-12-18T01:19:00.953Z,22.77
2022-12-18T01:21:29.164Z,20.97
2022-12-18T01:23:57.908Z,21.10
2022-12-18T01:26:26.811Z,20.13
2022-12-18T01:28:57.494Z,19.60
2022-12-18T01:31:32.292Z,20.10
2022-12-18T01:34:02.761Z,18.93
2022-12-18T01:36:33.741Z,19.80
2022-12-18T01:39:21.837Z,20.33
2022-12-18T01:42:05.176Z,22.47
2022-12-18T01:45:07.959Z,20.47
2022-12-18T01:47:38.131Z,20.07
2022-12-18T01:50:40.845Z,19.23
2022-12-18T01:53:14.662Z,19.63
2022-12-18T01:56:02.344Z,18.73
2022-12-18T01:58:51.724Z,19.40
2022-12-18T02:01:22.063Z,18.27
2022-12-18T02:03:49.827Z,17.60
2022-12-18T02:06:40.936Z,17.73
2022-12-18T02:09:20.655Z,17.23
2022-12-18T02:12:01.156Z,17.77
2022-12-18T02:14:28.480Z,18.13
2022-12-18T02:17:24.028Z,18.93
2022-12-18T02:20:09.990Z,17.97
2022-12-18T02:23:21.067Z,19.77
2022-12-18T02:26:13.249Z,17.70
2022-12-18T02:29:09.049Z,18.67
2022-12-18T02:31:46.721Z,16.20
2022-12-18T02:34:15.604Z,16.50
2022-12-18T02:36:46.651Z,17.67
2022-12-18T02:39:16.749Z,15.97
2022-12-18T02:41:44.478Z,16.30
2022-12-18T02:44:14.446Z,15.07
2022-12-18T02:46:54.333Z,16.03
2022-12-18T02:49:40.135Z,13.73
2022-12-18T02:52:46.813Z,15.27
2022-12-18T02:55:25.993Z,15.23
2022-12-18T02:58:34.851Z,15.40
2022-12-18T03:01:57.026Z,15.53
2022-12-18T03:04:59.677Z,14.77
2022-12-18T03:07:57.279Z,14.17
2022-12-18T03:10:32.995Z,15.20
2022-12-18T03:13:07.474Z,15.70
2022-12-18T03:15:48.542Z,14.57
2022-12-18T03:18:25.190Z,14.70
2022-12-18T03:20:54.874Z,14.57
2022-12-18T03:23:29.441Z,15.40
2022-12-18T03:26:07.425Z,14.77
2022-12-18T03:28:41.480Z,15.00
2022-12-18T03:31:12.990Z,15.07
2022-12-18T03:33:54.846Z,15.00
2022-12-18T03:36:23.978Z,15.33
2022-12-18T03:38:52.040Z,14.03
2022-12-18T03:41:34.052Z,14.63
2022-12-18T03:44:24.318Z,14.63
2022-12-18T03:47:21.528Z,14.57
2022-12-18T03:50:15.955Z,13.67
2022-12-18T03:52:59.093Z,13.00
2022-12-18T03:55:29.150Z,12.87
2022-12-18T03:57:57.801Z,13.53
2022-12-18T04:00:25.344Z,13.27
2022-12-18T04:02:55.820Z,13.53
2022-12-18T04:05:25.943Z,14.77
2022-12-18T04:07:55.136Z,13.10
2022-12-18T04:10:22.908Z,13.63
2022-12-18T04:12:50.368Z,12.40
2022-12-18T04:15:18.046Z,13.10
2022-12-18T04:17:50.272Z,13.17
2022-12-18T04:20:18.746Z,13.63
2022-12-18T04:22:46.546Z,14.07
2022-12-18T04:25:15.118Z,14.37
2022-12-18T04:27:42.536Z,14.13
2022-12-18T04:30:10.524Z,13.07
2022-12-18T04:32:37.994Z,14.27
2022-12-18T04:35:07.848Z,13.90
2022-12-18T04:37:35.260Z,13.23
2022-12-18T04:40:02.680Z,12.80
2022-12-18T04:42:30.113Z,12.13
2022-12-18T04:44:57.534Z,12.80
2022-12-18T04:47:24.963Z,14.53
2022-12-18T04:49:52.448Z,13.93
2022-12-18T04:52:19.848Z,13.60
2022-12-18T04:54:47.237Z,14.17
2022-12-18T04:57:14.952Z,13.93
2022-12-18T04:59:42.342Z,12.87
2022-12-18T05:02:09.842Z,14.30
2022-12-18T05:04:37.495Z,14.40
2022-12-18T05:07:04.894Z,14.93
2022-12-18T05:09:32.312Z,13.93
2022-12-18T05:11:59.742Z,14.27
2022-12-18T05:14:28.709Z,12.77
2022-12-18T05:17:00.697Z,14.53
2022-12-18T05:19:28.583Z,14.07
2022-12-18T05:21:55.951Z,15.00
2022-12-18T05:24:23.368Z,15.50
2022-12-18T05:26:50.781Z,15.20
2022-12-18T05:29:18.176Z,15.17
2022-12-18T05:31:45.668Z,14.67
2022-12-18T05:34:13.163Z,15.80
2022-12-18T05:36:41.147Z,17.60
2022-12-18T05:39:09.180Z,15.13
2022-12-18T05:41:36.778Z,14.20
2022-12-18T05:44:04.480Z,15.77
2022-12-18T05:46:33.394Z,14.37
2022-12-18T05:49:02.408Z,14.47
2022-12-18T05:51:29.953Z,14.63
2022-12-18T05:53:57.446Z,15.87
2022-12-18T05:56:24.961Z,14.73
2022-12-18T05:58:56.357Z,14.57
2022-12-18T06:01:27.597Z,16.07
2022-12-18T06:03:56.059Z,15.00
2022-12-18T06:06:27.437Z,15.43
2022-12-18T06:08:56.738Z,13.87
2022-12-18T06:11:27.724Z,19.30
2022-12-18T06:13:58.975Z,14.40
2022-12-18T06:16:27.864Z,13.93
2022-12-18T06:18:59.048Z,15.13
2022-12-18T06:21:28.696Z,14.33
2022-12-18T06:23:56.769Z,14.27
2022-12-18T06:26:28.361Z,14.30
2022-12-18T06:28:56.295Z,14.90
2022-12-18T06:31:23.805Z,14.93
2022-12-18T06:33:51.473Z,14.97
2022-12-18T06:36:19.224Z,14.93
2022-12-18T06:38:47.188Z,15.67
2022-12-18T06:41:18.387Z,14.60
2022-12-18T06:43:46.192Z,15.87
2022-12-18T06:46:14.495Z,17.90
2022-12-18T06:48:42.094Z,16.67
2022-12-18T06:51:09.887Z,15.07
2022-12-18T06:53:37.965Z,13.03
2022-12-18T06:56:10.764Z,15.97
2022-12-18T06:58:40.133Z,14.97
2022-12-18T07:01:11.764Z,13.37
2022-12-18T07:03:42.247Z,13.47
2022-12-18T07:06:20.189Z,13.40
2022-12-18T07:08:49.434Z,14.10
2022-12-18T07:11:18.489Z,13.57
2022-12-18T07:13:47.037Z,13.80
2022-12-18T07:16:24.792Z,13.30
2022-12-18T07:18:55.288Z,13.93
2022-12-18T07:21:24.346Z,15.17
2022-12-18T07:23:52.266Z,14.43
2022-12-18T07:26:22.207Z,20.23
2022-12-18T07:28:50.716Z,17.00
2022-12-18T07:31:21.569Z,14.60
2022-12-18T07:33:51.027Z,14.50
2022-12-18T07:36:19.019Z,15.20
2022-12-18T07:38:50.052Z,16.40
2022-12-18T07:41:18.052Z,16.20
2022-12-18T07:43:45.499Z,16.53
2022-12-18T07:46:16.792Z,16.47
2022-12-18T07:48:46.211Z,15.97
2022-12-18T07:51:19.037Z,16.47
2022-12-18T07:53:46.928Z,18.73
2022-12-18T07:56:28.568Z,20.80
2022-12-18T07:58:57.228Z,18.37
2022-12-18T08:01:25.408Z,17.47
2022-12-18T08:03:53.052Z,17.20
2022-12-18T08:06:22.579Z,17.70
2022-12-18T08:08:56.903Z,17.93
2022-12-18T08:11:27.089Z,18.57
2022-12-18T08:13:55.064Z,17.43
2022-12-18T08:16:23.613Z,18.23
2022-12-18T08:18:53.605Z,19.10
2022-12-18T08:21:30.312Z,25.83
2022-12-18T08:24:02.790Z,20.03
2022-12-18T08:26:32.508Z,24.77
2022-12-18T08:29:01.927Z,24.00
2022-12-18T08:31:31.892Z,24.80
2022-12-18T08:33:59.562Z,21.77
2022-12-18T08:36:27.543Z,20.63
2022-12-18T08:38:55.581Z,21.57
2022-12-18T08:41:23.261Z,22.13
2022-12-18T08:44:09.481Z,22.63
2022-12-18T08:46:41.173Z,22.70
2022-12-18T08:49:10.036Z,22.23
2022-12-18T08:51:38.516Z,21.73
2022-12-18T08:54:06.866Z,21.40
2022-12-18T08:56:35.262Z,25.80
2022-12-18T08:59:02.858Z,23.93
2022-12-18T09:01:30.497Z,22.23
2022-12-18T09:03:58.810Z,23.57
2022-12-18T09:06:27.715Z,21.63
2022-12-18T09:08:55.176Z,28.30
2022-12-18T09:11:28.506Z,23.03
2022-12-18T09:13:57.307Z,21.53
2022-12-18T09:16:31.686Z,20.63
2022-12-18T09:19:00.912Z,23.27
2022-12-18T09:21:42.238Z,29.33
2022-12-18T09:24:14.979Z,23.20
2022-12-18T09:26:43.514Z,22.73
2022-12-18T09:29:15.727Z,23.40
2022-12-18T09:31:44.149Z,20.73
2022-12-18T09:34:11.645Z,19.40
2022-12-18T09:36:39.771Z,19.20
2022-12-18T09:39:08.879Z,19.23
2022-12-18T09:41:51.714Z,20.47
2022-12-18T09:44:32.854Z,18.17
2022-12-18T09:47:21.676Z,17.57
2022-12-18T09:49:55.113Z,17.60
2022-12-18T09:52:32.691Z,19.57
2022-12-18T09:55:02.830Z,17.40
2022-12-18T09:57:34.743Z,16.83
2022-12-18T10:00:20.975Z,17.00
2022-12-18T10:02:49.349Z,17.63
2022-12-18T10:05:37.055Z,17.40
2022-12-18T10:08:21.308Z,16.80
2022-12-18T10:10:54.198Z,18.17
2022-12-18T10:13:39.911Z,18.27
2022-12-18T10:16:22.668Z,21.73
2022-12-18T10:19:31.265Z,18.47
2022-12-18T10:22:17.305Z,16.90
2022-12-18T10:24:50.275Z,18.03
2022-12-18T10:27:23.888Z,16.23
2022-12-18T10:29:51.619Z,17.27
2022-12-18T10:32:24.095Z,17.73
2022-12-18T10:35:00.065Z,16.90
2022-12-18T10:37:31.153Z,17.90
2022-12-18T10:40:22.389Z,17.33
2022-12-18T10:43:06.401Z,17.47
2022-12-18T10:45:33.845Z,17.43
2022-12-18T10:48:01.657Z,19.30
2022-12-18T10:51:09.308Z,17.77
2022-12-18T10:53:32.155Z,19.47
2022-12-18T10:56:03.880Z,16.30
2022-12-18T10:58:35.589Z,16.10
2022-12-18T11:01:21.325Z,17.33
2022-12-18T11:03:51.817Z,17.70
2022-12-18T11:06:24.270Z,26.50
2022-12-18T11:09:13.324Z,26.97
2022-12-18T11:11:42.677Z,20.23
2022-12-18T11:14:46.528Z,19.03
2022-12-18T11:17:36.699Z,19.80
2022-12-18T11:20:08.271Z,17.13
2022-12-18T11:22:37.967Z,17.43
2022-12-18T11:25:32.705Z,17.83
2022-12-18T11:28:24.446Z,17.20
2022-12-18T11:31:29.996Z,18.17
2022-12-18T11:34:29.528Z,17.67
2022-12-18T11:37:00.906Z,17.33
2022-12-18T11:39:46.025Z,17.83
2022-12-18T11:42:38.824Z,18.33
2022-12-18T11:45:37.664Z,19.53
2022-12-18T11:48:19.499Z,18.77
2022-12-18T11:51:00.108Z,19.93
2022-12-18T11:53:28.967Z,19.30
2022-12-18T11:56:29.069Z,19.23
2022-12-18T11:59:19.332Z,19.23
2022-12-18T12:02:24.186Z,20.00
2022-12-18T12:05:27.303Z,18.33
2022-12-18T12:08:35.691Z,18.60
2022-12-18T12:11:29.196Z,17.90
2022-12-18T12:14:28.691Z,20.33
2022-12-18T12:17:43.149Z,20.57
2022-12-18T12:20:15.925Z,21.83
2022-12-18T12:23:04.348Z,20.73
2022-12-18T12:25:56.271Z,20.20
2022-12-18T12:29:11.636Z,20.80
2022-12-18T12:32:00.653Z,21.63
2022-12-18T12:35:04.749Z,22.77
2022-12-18T12:38:13.388Z,21.97
2022-12-18T12:41:03.078Z,22.10
2022-12-18T12:43:49.376Z,23.37
2022-12-18T12:46:20.734Z,21.93
2022-12-18T12:49:02.063Z,21.40
2022-12-18T12:51:37.331Z,23.83
2022-12-18T12:54:14.953Z,22.23
2022-12-18T12:57:39.001Z,22.57
2022-12-18T13:00:11.907Z,24.07
2022-12-18T13:03:13.812Z,23.50
2022-12-18T13:06:00.708Z,23.33
2022-12-18T13:08:34.936Z,21.30
2022-12-18T13:11:21.453Z,23.60
2022-12-18T13:13:57.513Z,23.40
2022-12-18T13:16:28.675Z,23.27
2022-12-18T13:18:59.826Z,22.90
2022-12-18T13:21:31.652Z,23.90
2022-12-18T13:24:24.330Z,29.77
2022-12-18T13:26:52.267Z,35.33
2022-12-18T13:29:45.968Z,33.50
2022-12-18T13:32:26.541Z,34.07
2022-12-18T13:35:23.081Z,25.17
2022-12-18T13:37:56.184Z,23.27
2022-12-18T13:40:50.778Z,21.67
2022-12-18T13:46:22.907Z,21.37
2022-12-18T13:49:00.065Z,21.80
2022-12-18T13:51:28.926Z,19.80
2022-12-18T13:54:04.220Z,19.80
2022-12-18T13:56:35.316Z,18.60
2022-12-18T13:59:24.842Z,20.50
2022-12-18T14:02:04.368Z,20.17
2022-12-18T14:04:36.807Z,23.33
2022-12-18T14:07:48.976Z,22.83
2022-12-18T14:10:45.545Z,22.67
2022-12-18T14:13:10.437Z,28.60
2022-12-18T14:15:43.235Z,22.10
2022-12-18T14:18:22.440Z,20.17
2022-12-18T14:20:56.992Z,20.40
2022-12-18T14:23:43.416Z,18.80
2022-12-18T14:26:30.664Z,21.60
2022-12-18T14:29:19.425Z,19.10
2022-12-18T14:31:47.957Z,21.30
2022-12-18T14:34:20.458Z,21.73
2022-12-18T14:36:56.459Z,21.97
2022-12-18T14:39:26.536Z,23.50
2022-12-18T14:41:54.985Z,25.67
2022-12-18T14:44:22.711Z,24.73
2022-12-18T14:46:51.979Z,24.27
2022-12-18T14:49:35.814Z,30.83
2022-12-18T14:52:28.831Z,23.50
2022-12-18T14:54:56.723Z,22.50
2022-12-18T14:57:27.948Z,23.97
2022-12-18T15:00:06.055Z,22.77
2022-12-18T15:02:37.339Z,26.30
2022-12-18T15:05:14.403Z,25.43
2022-12-18T15:07:46.593Z,26.50
2022-12-18T15:10:27.236Z,25.53
2022-12-18T15:12:57.746Z,26.77
2022-12-18T15:15:37.244Z,30.53
2022-12-18T15:18:04.685Z,33.67
2022-12-18T15:20:35.161Z,33.57
2022-12-18T15:23:02.871Z,27.47
2022-12-18T15:25:37.852Z,26.90
2022-12-18T15:28:21.472Z,25.03
2022-12-18T15:31:18.751Z,25.30
2022-12-18T15:34:06.521Z,27.10
2022-12-18T15:36:37.574Z,27.27
2022-12-18T15:39:06.992Z,26.47
2022-12-18T15:41:37.063Z,23.00
2022-12-18T15:44:24.198Z,24.57
2022-12-18T15:46:51.658Z,24.53
2022-12-18T15:49:19.092Z,26.10
2022-12-18T15:51:49.469Z,27.30
2022-12-18T15:54:17.284Z,25.97
2022-12-18T15:57:03.365Z,24.30
2022-12-18T15:59:30.800Z,25.40
2022-12-18T16:01:58.345Z,24.30
2022-12-18T16:04:26.690Z,24.83
2022-12-18T16:09:41.841Z,26.13
2022-12-18T16:12:21.931Z,24.30
2022-12-18T16:14:49.487Z,22.90
2022-12-18T16:17:17.498Z,24.93
2022-12-18T16:19:45.464Z,25.60
2022-12-18T16:22:26.001Z,24.13
2022-12-18T16:24:55.111Z,26.43
2022-12-18T16:27:23.542Z,25.00
2022-12-18T16:29:51.486Z,26.37
2022-12-18T16:32:22.051Z,24.40
2022-12-18T16:34:50.756Z,25.23
2022-12-18T16:37:18.360Z,26.97
2022-12-18T16:39:46.146Z,26.10
2022-12-18T16:42:21.335Z,27.63
2022-12-18T16:44:50.719Z,26.80
2022-12-18T16:47:19.307Z,27.47
2022-12-18T16:49:47.099Z,25.73
2022-12-18T16:52:15.256Z,25.90
2022-12-18T16:54:42.728Z,27.03
2022-12-18T16:57:14.206Z,25.10
2022-12-18T16:59:41.886Z,28.30
2022-12-18T17:02:26.499Z,28.63
2022-12-18T17:04:57.840Z,26.27
2022-12-18T17:07:26.715Z,29.40
2022-12-18T17:09:54.733Z,27.50
2022-12-18T17:12:22.188Z,27.17
2022-12-18T17:14:49.658Z,28.00
2022-12-18T17:17:21.869Z,27.63
2022-12-18T17:19:51.784Z,28.40
2022-12-18T17:22:20.182Z,29.33
2022-12-18T17:24:47.865Z,28.07
2022-12-18T17:27:16.698Z,28.87
2022-12-18T17:29:47.851Z,28.17
2022-12-18T17:32:17.630Z,28.53
2022-12-18T17:34:45.399Z,27.93
2022-12-18T17:37:13.619Z,27.93
2022-12-18T17:39:41.168Z,30.27
2022-12-18T17:42:10.659Z,28.63
2022-12-18T17:44:43.145Z,28.60
2022-12-18T17:47:12.370Z,30.93
2022-12-18T17:49:39.962Z,30.02
2022-12-18T17:52:07.620Z,31.85
2022-12-18T17:54:37.949Z,30.60
2022-12-18T17:57:05.827Z,30.50
2022-12-18T17:59:33.262Z,29.67
2022-12-18T18:02:00.843Z,27.98
2022-12-18T18:04:28.629Z,29.50
2022-12-18T18:06:56.123Z,30.58
2022-12-18T18:09:23.614Z,29.95
2022-12-18T18:12:09.881Z,29.83
2022-12-18T18:14:37.259Z,33.10
2022-12-18T18:17:06.075Z,39.95
2022-12-18T18:19:34.475Z,41.40
2022-12-18T18:22:03.118Z,46.70
2022-12-18T18:24:33.603Z,35.78
2022-12-18T18:27:01.034Z,33.92
2022-12-18T18:29:32.610Z,31.42
2022-12-18T18:32:00.395Z,34.78
2022-12-18T18:34:31.234Z,34.13
2022-12-18T18:36:58.788Z,34.30
2022-12-18T18:39:26.564Z,40.38
2022-12-18T18:41:54.622Z,40.67
2022-12-18T18:44:25.732Z,42.97
2022-12-18T18:46:58.301Z,42.08
2022-12-18T18:49:27.990Z,40.80
2022-12-18T18:51:57.318Z,38.50
2022-12-18T18:54:25.827Z,40.20
2022-12-18T18:57:19.397Z,41.33
2022-12-18T18:59:41.787Z,39.53
2022-12-18T19:02:15.184Z,41.30
2022-12-18T19:04:46.243Z,41.22
2022-12-18T19:07:29.521Z,42.58
2022-12-18T19:10:04.686Z,40.58
2022-12-18T19:12:53.023Z,38.58
2022-12-18T19:15:20.695Z,40.83
2022-12-18T19:17:48.136Z,36.92
2022-12-18T19:20:16.325Z,39.70
2022-12-18T19:22:43.787Z,39.05
2022-12-18T19:25:15.379Z,38.40
2022-12-18T19:27:43.124Z,38.58
2022-12-18T19:30:11.596Z,39.85
2022-12-18T19:32:39.015Z,40.13
2022-12-18T19:35:06.825Z,44.50
2022-12-18T19:37:35.764Z,48.03
2022-12-18T19:40:06.660Z,46.67
2022-12-18T19:42:41.393Z,45.67
2022-12-18T19:45:09.367Z,48.63
2022-12-18T19:47:36.761Z,52.10
2022-12-18T19:50:04.594Z,54.42
2022-12-18T19:52:32.094Z,54.30
2022-12-18T19:54:59.667Z,69.72
2022-12-18T19:57:27.083Z,81.38
2022-12-18T19:59:54.528Z,77.43
2022-12-18T20:02:22.137Z,50.55
2022-12-18T20:04:50.248Z,47.20
2022-12-18T20:07:17.698Z,45.75
2022-12-18T20:09:45.753Z,46.17
2022-12-18T20:12:13.300Z,42.22
2022-12-18T20:14:40.744Z,42.13
2022-12-18T20:17:08.265Z,45.13
2022-12-18T20:19:35.792Z,44.25
2022-12-18T20:22:03.864Z,42.65
2022-12-18T20:24:31.286Z,42.28
2022-12-18T20:26:58.879Z,44.78
2022-12-18T20:29:26.468Z,46.92
2022-12-18T20:31:54.211Z,43.55
2022-12-18T20:34:22.213Z,46.67
2022-12-18T20:36:50.299Z,53.63
2022-12-18T20:39:18.786Z,57.85
2022-12-18T20:41:46.752Z,54.65
2022-12-18T20:44:22.428Z,59.33
2022-12-18T20:46:54.797Z,54.38
2022-12-18T20:49:23.413Z,50.67
2022-12-18T20:51:57.311Z,46.92
2022-12-18T20:54:26.927Z,46.55
2022-12-18T20:56:55.158Z,49.88
2022-12-18T20:59:25.335Z,51.13
2022-12-18T21:01:56.260Z,50.70
2022-12-18T21:04:24.684Z,48.78
2022-12-18T21:06:58.022Z,48.42
2022-12-18T21:09:34.213Z,49.10
2022-12-18T21:12:32.515Z,49.42
2022-12-18T21:15:09.711Z,59.13
2022-12-18T21:17:44.170Z,68.13
2022-12-18T21:20:15.742Z,89.18
2022-12-18T21:22:45.499Z,65.45
2022-12-18T21:25:12.900Z,52.70
2022-12-18T21:27:40.353Z,51.30
2022-12-18T21:30:08.634Z,42.47
2022-12-18T21:32:36.091Z,45.97
2022-12-18T21:35:03.976Z,53.15
2022-12-18T21:37:31.387Z,47.08
2022-12-18T21:39:58.768Z,42.90
2022-12-18T21:42:44.779Z,39.90
2022-12-18T21:45:12.425Z,43.42
2022-12-18T21:47:39.928Z,43.58
2022-12-18T21:50:07.880Z,45.70
2022-12-18T21:52:35.412Z,42.53
2022-12-18T21:55:08.931Z,37.03
2022-12-18T21:57:39.560Z,35.97
2022-12-18T22:00:19.265Z,36.08
2022-12-18T22:02:48.942Z,34.88
2022-12-18T22:05:36.292Z,36.75
2022-12-18T22:08:03.835Z,38.40
2022-12-18T22:10:31.506Z,37.00
2022-12-18T22:12:58.929Z,38.75
2022-12-18T22:15:26.464Z,35.97
2022-12-18T22:17:58.733Z,35.42
2022-12-18T22:20:30.022Z,44.70
2022-12-18T22:22:58.427Z,51.78
2022-12-18T22:25:25.968Z,69.63
2022-12-18T22:28:11.741Z,62.38
2022-12-18T22:30:39.384Z,41.42
2022-12-18T22:33:06.855Z,40.13
2022-12-18T22:35:34.308Z,41.92
2022-12-18T22:38:02.134Z,43.08
2022-12-18T22:40:29.853Z,44.42
2022-12-18T22:42:57.681Z,45.22
2022-12-18T22:45:26.952Z,44.35
2022-12-18T22:47:54.699Z,45.92
2022-12-18T22:50:22.256Z,42.70
2022-12-18T22:52:49.806Z,44.28
2022-12-18T22:55:17.367Z,41.20
2022-12-18T22:57:48.741Z,45.40
2022-12-18T23:00:23.886Z,39.90
2022-12-18T23:03:00.427Z,39.63
2022-12-18T23:05:30.445Z,39.97
2022-12-18T23:07:58.754Z,45.20
2022-12-18T23:10:26.822Z,49.47
2022-12-18T23:12:54.245Z,47.97
2022-12-18T23:15:24.450Z,49.15
2022-12-18T23:17:57.935Z,49.40
2022-12-18T23:20:26.994Z,50.83
2022-12-18T23:22:54.522Z,46.05
2022-12-18T23:25:22.136Z,54.80
2022-12-18T23:27:49.698Z,64.30
2022-12-18T23:30:17.294Z,53.60
2022-12-18T23:32:44.933Z,55.20
2022-12-18T23:35:13.317Z,57.92
2022-12-18T23:38:00.519Z,51.42
2022-12-18T23:40:29.784Z,48.40
2022-12-18T23:42:57.442Z,55.20
2022-12-18T23:45:24.915Z,49.85
2022-12-18T23:47:52.448Z,44.80
2022-12-18T23:50:20.230Z,44.17
2022-12-18T23:52:50.300Z,44.00
2022-12-18T23:55:17.958Z,44.42
2022-12-18T23:57:45.479Z,45.00
